sensor_id;sensor_type;location;lat;lon;timestamp;P1;durP1;ratioP1;P2;durP2;ratioP2
37284;SDS011;23172;53.550;9.964;2023-05-02T00:01:08;16.65;;;13.95;;
37284;SDS011;23172;53.550;9.964;2023-05-02T00:06:11;16.80;;;12.73;;
37284;SDS011;23172;53.550;9.964;2023-05-02T00:11:13;17.50;;;14.32;;
37284;SDS011;23172;53.550;9.964;2023-05-02T00:16:15;13.75;;;11.27;;
37284;SDS011;23172;53.550;9.964;2023-05-02T00:21:19;9.98;;;8.95;;
37284;SDS011;23172;53.550;9.964;2023-05-02T00:26:21;18.13;;;15.18;;
37284;SDS011;23172;53.550;9.964;2023-05-02T00:31:23;16.20;;;14.20;;
37284;SDS011;23172;53.550;9.964;2023-05-02T00:36:26;23.00;;;17.25;;
37284;SDS011;23172;53.550;9.964;2023-05-02T00:41:28;17.80;;;15.27;;
37284;SDS011;23172;53.550;9.964;2023-05-02T00:46:30;18.02;;;15.82;;
37284;SDS011;23172;53.550;9.964;2023-05-02T00:51:33;19.70;;;16.95;;
37284;SDS011;23172;53.550;9.964;2023-05-02T00:56:35;20.73;;;17.45;;
37284;SDS011;23172;53.550;9.964;2023-05-02T01:01:39;15.57;;;13.30;;
37284;SDS011;23172;53.550;9.964;2023-05-02T01:06:58;15.52;;;13.70;;
37284;SDS011;23172;53.550;9.964;2023-05-02T01:12:13;17.90;;;14.38;;
37284;SDS011;23172;53.550;9.964;2023-05-02T01:17:22;13.88;;;12.02;;
37284;SDS011;23172;53.550;9.964;2023-05-02T01:22:29;12.27;;;10.63;;
37284;SDS011;23172;53.550;9.964;2023-05-02T01:27:35;20.08;;;17.35;;
37284;SDS011;23172;53.550;9.964;2023-05-02T01:32:45;13.40;;;12.00;;
37284;SDS011;23172;53.550;9.964;2023-05-02T01:37:48;12.15;;;10.95;;
37284;SDS011;23172;53.550;9.964;2023-05-02T01:42:53;12.93;;;10.40;;
37284;SDS011;23172;53.550;9.964;2023-05-02T01:47:57;14.38;;;11.73;;
37284;SDS011;23172;53.550;9.964;2023-05-02T01:53:02;15.45;;;12.15;;
37284;SDS011;23172;53.550;9.964;2023-05-02T01:58:04;13.50;;;10.50;;
37284;SDS011;23172;53.550;9.964;2023-05-02T02:03:08;8.27;;;7.18;;
37284;SDS011;23172;53.550;9.964;2023-05-02T02:08:11;11.40;;;10.05;;
37284;SDS011;23172;53.550;9.964;2023-05-02T02:13:15;9.15;;;8.32;;
37284;SDS011;23172;53.550;9.964;2023-05-02T02:18:21;9.57;;;7.63;;
37284;SDS011;23172;53.550;9.964;2023-05-02T02:23:26;9.82;;;8.18;;
37284;SDS011;23172;53.550;9.964;2023-05-02T02:28:30;12.43;;;9.57;;
37284;SDS011;23172;53.550;9.964;2023-05-02T02:33:35;7.30;;;6.28;;
37284;SDS011;23172;53.550;9.964;2023-05-02T02:38:40;6.88;;;5.10;;
37284;SDS011;23172;53.550;9.964;2023-05-02T02:43:46;6.40;;;5.80;;
37284;SDS011;23172;53.550;9.964;2023-05-02T02:48:52;8.63;;;6.25;;
37284;SDS011;23172;53.550;9.964;2023-05-02T02:53:59;8.23;;;6.60;;
37284;SDS011;23172;53.550;9.964;2023-05-02T02:59:03;7.25;;;5.03;;
37284;SDS011;23172;53.550;9.964;2023-05-02T03:04:07;6.95;;;4.45;;
37284;SDS011;23172;53.550;9.964;2023-05-02T03:09:13;11.23;;;5.00;;
37284;SDS011;23172;53.550;9.964;2023-05-02T03:14:17;9.85;;;3.90;;
37284;SDS011;23172;53.550;9.964;2023-05-02T03:19:20;9.82;;;3.85;;
37284;SDS011;23172;53.550;9.964;2023-05-02T03:24:22;9.23;;;3.50;;
37284;SDS011;23172;53.550;9.964;2023-05-02T03:29:26;10.40;;;3.60;;
37284;SDS011;23172;53.550;9.964;2023-05-02T03:34:30;11.50;;;3.63;;
37284;SDS011;23172;53.550;9.964;2023-05-02T03:39:32;10.82;;;4.07;;
37284;SDS011;23172;53.550;9.964;2023-05-02T03:44:33;12.45;;;3.95;;
37284;SDS011;23172;53.550;9.964;2023-05-02T03:49:37;11.70;;;4.55;;
37284;SDS011;23172;53.550;9.964;2023-05-02T03:54:38;14.18;;;3.92;;
37284;SDS011;23172;53.550;9.964;2023-05-02T03:59:42;11.80;;;3.85;;
37284;SDS011;23172;53.550;9.964;2023-05-02T04:04:47;10.45;;;3.78;;
37284;SDS011;23172;53.550;9.964;2023-05-02T04:09:49;17.38;;;4.82;;
37284;SDS011;23172;53.550;9.964;2023-05-02T04:14:51;15.20;;;4.72;;
37284;SDS011;23172;53.550;9.964;2023-05-02T04:19:55;15.45;;;4.80;;
37284;SDS011;23172;53.550;9.964;2023-05-02T04:24:57;16.08;;;4.88;;
37284;SDS011;23172;53.550;9.964;2023-05-02T04:29:59;11.48;;;4.20;;
37284;SDS011;23172;53.550;9.964;2023-05-02T04:35:02;11.77;;;3.90;;
37284;SDS011;23172;53.550;9.964;2023-05-02T04:40:05;10.00;;;3.97;;
37284;SDS011;23172;53.550;9.964;2023-05-02T04:45:08;8.95;;;3.55;;
37284;SDS011;23172;53.550;9.964;2023-05-02T04:50:11;10.88;;;3.90;;
37284;SDS011;23172;53.550;9.964;2023-05-02T04:55:13;11.27;;;3.65;;
37284;SDS011;23172;53.550;9.964;2023-05-02T05:00:15;10.85;;;3.80;;
37284;SDS011;23172;53.550;9.964;2023-05-02T05:05:18;13.27;;;3.85;;
37284;SDS011;23172;53.550;9.964;2023-05-02T05:10:20;11.18;;;3.53;;
37284;SDS011;23172;53.550;9.964;2023-05-02T05:15:22;12.43;;;4.75;;
37284;SDS011;23172;53.550;9.964;2023-05-02T05:20:26;12.52;;;4.03;;
37284;SDS011;23172;53.550;9.964;2023-05-02T05:25:28;11.35;;;4.10;;
37284;SDS011;23172;53.550;9.964;2023-05-02T05:30:30;13.98;;;3.92;;
37284;SDS011;23172;53.550;9.964;2023-05-02T05:35:33;10.35;;;3.80;;
37284;SDS011;23172;53.550;9.964;2023-05-02T05:40:35;14.48;;;3.78;;
37284;SDS011;23172;53.550;9.964;2023-05-02T05:45:37;13.70;;;4.13;;
37284;SDS011;23172;53.550;9.964;2023-05-02T05:50:40;8.50;;;3.22;;
37284;SDS011;23172;53.550;9.964;2023-05-02T05:55:42;12.45;;;3.78;;
37284;SDS011;23172;53.550;9.964;2023-05-02T06:00:44;8.13;;;3.35;;
37284;SDS011;23172;53.550;9.964;2023-05-02T06:05:47;12.38;;;3.90;;
37284;SDS011;23172;53.550;9.964;2023-05-02T06:10:49;8.02;;;3.30;;
37284;SDS011;23172;53.550;9.964;2023-05-02T06:15:51;7.55;;;3.72;;
37284;SDS011;23172;53.550;9.964;2023-05-02T06:20:54;7.93;;;3.88;;
37284;SDS011;23172;53.550;9.964;2023-05-02T06:25:57;9.70;;;3.17;;
37284;SDS011;23172;53.550;9.964;2023-05-02T06:31:01;7.85;;;2.90;;
37284;SDS011;23172;53.550;9.964;2023-05-02T06:36:05;8.70;;;3.13;;
37284;SDS011;23172;53.550;9.964;2023-05-02T06:41:11;12.05;;;3.05;;
37284;SDS011;23172;53.550;9.964;2023-05-02T06:46:13;8.27;;;2.90;;
37284;SDS011;23172;53.550;9.964;2023-05-02T06:51:16;9.60;;;2.90;;
37284;SDS011;23172;53.550;9.964;2023-05-02T06:56:20;11.05;;;4.68;;
37284;SDS011;23172;53.550;9.964;2023-05-02T07:01:22;6.85;;;2.97;;
37284;SDS011;23172;53.550;9.964;2023-05-02T07:06:25;10.15;;;2.80;;
37284;SDS011;23172;53.550;9.964;2023-05-02T07:11:27;8.85;;;3.00;;
37284;SDS011;23172;53.550;9.964;2023-05-02T07:16:29;5.55;;;2.83;;
37284;SDS011;23172;53.550;9.964;2023-05-02T07:21:32;5.80;;;3.30;;
37284;SDS011;23172;53.550;9.964;2023-05-02T07:26:34;6.05;;;2.63;;
37284;SDS011;23172;53.550;9.964;2023-05-02T07:31:36;6.80;;;2.90;;
37284;SDS011;23172;53.550;9.964;2023-05-02T07:36:39;3.97;;;2.28;;
37284;SDS011;23172;53.550;9.964;2023-05-02T07:41:41;3.47;;;2.30;;
37284;SDS011;23172;53.550;9.964;2023-05-02T07:46:43;4.35;;;2.40;;
37284;SDS011;23172;53.550;9.964;2023-05-02T07:51:46;5.95;;;3.47;;
37284;SDS011;23172;53.550;9.964;2023-05-02T07:56:48;6.60;;;2.70;;
37284;SDS011;23172;53.550;9.964;2023-05-02T08:01:50;7.18;;;2.88;;
37284;SDS011;23172;53.550;9.964;2023-05-02T08:06:53;6.65;;;2.70;;
37284;SDS011;23172;53.550;9.964;2023-05-02T08:11:56;4.53;;;2.30;;
37284;SDS011;23172;53.550;9.964;2023-05-02T08:16:58;4.90;;;1.92;;
37284;SDS011;23172;53.550;9.964;2023-05-02T08:22:01;5.75;;;2.55;;
37284;SDS011;23172;53.550;9.964;2023-05-02T08:27:03;4.85;;;2.20;;
37284;SDS011;23172;53.550;9.964;2023-05-02T08:32:05;7.85;;;2.30;;
37284;SDS011;23172;53.550;9.964;2023-05-02T08:37:09;4.07;;;2.05;;
37284;SDS011;23172;53.550;9.964;2023-05-02T08:42:11;5.88;;;3.03;;
37284;SDS011;23172;53.550;9.964;2023-05-02T08:47:13;4.95;;;2.60;;
37284;SDS011;23172;53.550;9.964;2023-05-02T08:52:17;4.30;;;2.67;;
37284;SDS011;23172;53.550;9.964;2023-05-02T08:57:20;3.63;;;2.42;;
37284;SDS011;23172;53.550;9.964;2023-05-02T09:02:23;5.85;;;3.88;;
37284;SDS011;23172;53.550;9.964;2023-05-02T09:07:44;12.15;;;11.45;;
37284;SDS011;23172;53.550;9.964;2023-05-02T09:12:47;66.95;;;64.15;;
37284;SDS011;23172;53.550;9.964;2023-05-02T09:17:49;71.28;;;68.45;;
37284;SDS011;23172;53.550;9.964;2023-05-02T09:22:52;76.85;;;73.90;;
37284;SDS011;23172;53.550;9.964;2023-05-02T09:27:54;58.60;;;56.00;;
37284;SDS011;23172;53.550;9.964;2023-05-02T09:33:00;56.13;;;53.50;;
37284;SDS011;23172;53.550;9.964;2023-05-02T09:38:03;71.60;;;68.53;;
37284;SDS011;23172;53.550;9.964;2023-05-02T09:43:20;86.82;;;83.32;;
37284;SDS011;23172;53.550;9.964;2023-05-02T09:48:22;93.97;;;90.03;;
37284;SDS011;23172;53.550;9.964;2023-05-02T09:53:26;149.82;;;143.40;;
37284;SDS011;23172;53.550;9.964;2023-05-02T09:58:28;232.57;;;221.15;;
37284;SDS011;23172;53.550;9.964;2023-05-02T10:03:31;266.60;;;253.75;;
37284;SDS011;23172;53.550;9.964;2023-05-02T10:08:38;158.02;;;150.82;;
37284;SDS011;23172;53.550;9.964;2023-05-02T10:13:44;92.28;;;88.15;;
37284;SDS011;23172;53.550;9.964;2023-05-02T10:18:47;55.35;;;52.75;;
37284;SDS011;23172;53.550;9.964;2023-05-02T10:23:58;98.70;;;94.60;;
37284;SDS011;23172;53.550;9.964;2023-05-02T10:29:02;110.22;;;105.28;;
37284;SDS011;23172;53.550;9.964;2023-05-02T10:34:04;324.42;;;308.00;;
37284;SDS011;23172;53.550;9.964;2023-05-02T10:39:11;315.23;;;298.70;;
37284;SDS011;23172;53.550;9.964;2023-05-02T10:44:12;209.63;;;200.23;;
37284;SDS011;23172;53.550;9.964;2023-05-02T10:49:15;114.68;;;109.38;;
37284;SDS011;23172;53.550;9.964;2023-05-02T10:54:18;56.95;;;54.55;;
37284;SDS011;23172;53.550;9.964;2023-05-02T10:59:27;117.53;;;112.45;;
37284;SDS011;23172;53.550;9.964;2023-05-02T11:21:23;52.50;;;50.50;;
37284;SDS011;23172;53.550;9.964;2023-05-02T11:26:29;41.35;;;39.47;;
37284;SDS011;23172;53.550;9.964;2023-05-02T11:31:51;27.60;;;26.42;;
37284;SDS011;23172;53.550;9.964;2023-05-02T11:36:54;11.60;;;10.93;;
37284;SDS011;23172;53.550;9.964;2023-05-02T11:41:57;9.63;;;8.90;;
37284;SDS011;23172;53.550;9.964;2023-05-02T11:46:59;9.77;;;9.07;;
37284;SDS011;23172;53.550;9.964;2023-05-02T11:52:02;14.65;;;14.05;;
37284;SDS011;23172;53.550;9.964;2023-05-02T11:57:05;35.00;;;33.55;;
37284;SDS011;23172;53.550;9.964;2023-05-02T12:02:08;78.65;;;75.43;;
37284;SDS011;23172;53.550;9.964;2023-05-02T12:07:10;61.47;;;59.03;;
37284;SDS011;23172;53.550;9.964;2023-05-02T12:12:14;69.43;;;66.57;;
37284;SDS011;23172;53.550;9.964;2023-05-02T12:17:20;67.70;;;64.57;;
37284;SDS011;23172;53.550;9.964;2023-05-02T12:22:22;48.90;;;46.72;;
37284;SDS011;23172;53.550;9.964;2023-05-02T12:27:26;172.40;;;164.57;;
37284;SDS011;23172;53.550;9.964;2023-05-02T12:32:28;277.52;;;264.80;;
37284;SDS011;23172;53.550;9.964;2023-05-02T12:37:31;261.13;;;248.77;;
37284;SDS011;23172;53.550;9.964;2023-05-02T12:42:34;176.98;;;169.07;;
37284;SDS011;23172;53.550;9.964;2023-05-02T12:47:43;108.70;;;103.82;;
37284;SDS011;23172;53.550;9.964;2023-05-02T12:52:46;81.70;;;78.18;;
37284;SDS011;23172;53.550;9.964;2023-05-02T12:57:50;55.25;;;52.78;;
37284;SDS011;23172;53.550;9.964;2023-05-02T13:03:00;46.13;;;44.13;;
37284;SDS011;23172;53.550;9.964;2023-05-02T13:08:02;58.05;;;55.60;;
37284;SDS011;23172;53.550;9.964;2023-05-02T13:13:06;45.10;;;43.30;;
37284;SDS011;23172;53.550;9.964;2023-05-02T13:18:08;38.88;;;37.17;;
37284;SDS011;23172;53.550;9.964;2023-05-02T13:23:10;20.58;;;19.58;;
37284;SDS011;23172;53.550;9.964;2023-05-02T13:28:13;3.83;;;2.92;;
37284;SDS011;23172;53.550;9.964;2023-05-02T13:33:15;3.63;;;1.88;;
37284;SDS011;23172;53.550;9.964;2023-05-02T13:38:17;2.67;;;2.15;;
37284;SDS011;23172;53.550;9.964;2023-05-02T13:43:20;4.05;;;3.33;;
37284;SDS011;23172;53.550;9.964;2023-05-02T13:48:23;5.10;;;2.85;;
37284;SDS011;23172;53.550;9.964;2023-05-02T13:53:25;3.58;;;2.70;;
37284;SDS011;23172;53.550;9.964;2023-05-02T13:58:28;4.50;;;3.05;;
37284;SDS011;23172;53.550;9.964;2023-05-02T14:03:30;9.90;;;2.78;;
37284;SDS011;23172;53.550;9.964;2023-05-02T14:08:32;7.47;;;2.70;;
37284;SDS011;23172;53.550;9.964;2023-05-02T14:13:35;4.93;;;2.15;;
37284;SDS011;23172;53.550;9.964;2023-05-02T14:18:37;5.80;;;2.13;;
37284;SDS011;23172;53.550;9.964;2023-05-02T14:23:39;4.53;;;1.88;;
37284;SDS011;23172;53.550;9.964;2023-05-02T14:28:42;4.50;;;3.13;;
37284;SDS011;23172;53.550;9.964;2023-05-02T14:33:45;5.28;;;3.80;;
37284;SDS011;23172;53.550;9.964;2023-05-02T14:38:47;5.82;;;3.40;;
37284;SDS011;23172;53.550;9.964;2023-05-02T14:43:51;3.90;;;3.53;;
37284;SDS011;23172;53.550;9.964;2023-05-02T14:48:53;5.38;;;5.07;;
37284;SDS011;23172;53.550;9.964;2023-05-02T14:53:55;7.22;;;6.80;;
37284;SDS011;23172;53.550;9.964;2023-05-02T14:58:58;4.50;;;3.95;;
37284;SDS011;23172;53.550;9.964;2023-05-02T15:04:00;6.15;;;2.67;;
37284;SDS011;23172;53.550;9.964;2023-05-02T15:09:02;4.55;;;3.03;;
37284;SDS011;23172;53.550;9.964;2023-05-02T15:14:06;3.08;;;2.20;;
37284;SDS011;23172;53.550;9.964;2023-05-02T15:19:07;3.58;;;2.30;;
37284;SDS011;23172;53.550;9.964;2023-05-02T15:24:09;4.22;;;3.03;;
37284;SDS011;23172;53.550;9.964;2023-05-02T15:29:12;7.68;;;2.78;;
37284;SDS011;23172;53.550;9.964;2023-05-02T15:34:14;4.25;;;2.53;;
37284;SDS011;23172;53.550;9.964;2023-05-02T15:39:16;7.00;;;2.13;;
37284;SDS011;23172;53.550;9.964;2023-05-02T15:44:20;3.92;;;1.73;;
37284;SDS011;23172;53.550;9.964;2023-05-02T15:49:22;3.67;;;1.65;;
37284;SDS011;23172;53.550;9.964;2023-05-02T15:54:30;4.15;;;1.42;;
37284;SDS011;23172;53.550;9.964;2023-05-02T15:59:33;4.45;;;1.85;;
37284;SDS011;23172;53.550;9.964;2023-05-02T16:04:35;5.07;;;1.63;;
37284;SDS011;23172;53.550;9.964;2023-05-02T16:09:37;4.72;;;1.70;;
37284;SDS011;23172;53.550;9.964;2023-05-02T16:14:42;5.18;;;1.75;;
37284;SDS011;23172;53.550;9.964;2023-05-02T16:19:43;5.47;;;1.58;;
37284;SDS011;23172;53.550;9.964;2023-05-02T16:24:45;2.97;;;1.77;;
37284;SDS011;23172;53.550;9.964;2023-05-02T16:29:49;2.47;;;1.50;;
37284;SDS011;23172;53.550;9.964;2023-05-02T16:34:51;4.05;;;1.70;;
37284;SDS011;23172;53.550;9.964;2023-05-02T16:39:53;3.03;;;1.55;;
37284;SDS011;23172;53.550;9.964;2023-05-02T16:44:57;2.70;;;1.60;;
37284;SDS011;23172;53.550;9.964;2023-05-02T16:49:59;6.88;;;1.60;;
37284;SDS011;23172;53.550;9.964;2023-05-02T16:55:01;4.28;;;1.77;;
37284;SDS011;23172;53.550;9.964;2023-05-02T17:00:06;6.45;;;2.08;;
37284;SDS011;23172;53.550;9.964;2023-05-02T17:05:10;3.00;;;1.50;;
37284;SDS011;23172;53.550;9.964;2023-05-02T17:10:12;3.95;;;1.70;;
37284;SDS011;23172;53.550;9.964;2023-05-02T17:15:15;2.60;;;1.52;;
37284;SDS011;23172;53.550;9.964;2023-05-02T17:20:17;2.65;;;1.50;;
37284;SDS011;23172;53.550;9.964;2023-05-02T17:25:19;4.75;;;1.60;;
37284;SDS011;23172;53.550;9.964;2023-05-02T17:30:22;3.17;;;1.52;;
37284;SDS011;23172;53.550;9.964;2023-05-02T17:35:25;2.92;;;1.65;;
37284;SDS011;23172;53.550;9.964;2023-05-02T17:40:27;2.20;;;1.48;;
37284;SDS011;23172;53.550;9.964;2023-05-02T17:45:30;2.63;;;1.30;;
37284;SDS011;23172;53.550;9.964;2023-05-02T17:50:34;2.05;;;1.35;;
37284;SDS011;23172;53.550;9.964;2023-05-02T17:55:37;3.20;;;1.60;;
37284;SDS011;23172;53.550;9.964;2023-05-02T18:00:41;1.50;;;1.10;;
37284;SDS011;23172;53.550;9.964;2023-05-02T18:05:43;3.78;;;1.13;;
37284;SDS011;23172;53.550;9.964;2023-05-02T18:10:46;4.13;;;1.30;;
37284;SDS011;23172;53.550;9.964;2023-05-02T18:15:54;5.25;;;1.55;;
37284;SDS011;23172;53.550;9.964;2023-05-02T18:20:57;2.67;;;1.17;;
37284;SDS011;23172;53.550;9.964;2023-05-02T18:25:59;4.05;;;1.83;;
37284;SDS011;23172;53.550;9.964;2023-05-02T18:31:02;4.85;;;1.25;;
37284;SDS011;23172;53.550;9.964;2023-05-02T18:36:04;2.88;;;1.45;;
37284;SDS011;23172;53.550;9.964;2023-05-02T18:41:06;2.88;;;1.40;;
37284;SDS011;23172;53.550;9.964;2023-05-02T18:46:10;2.30;;;1.35;;
37284;SDS011;23172;53.550;9.964;2023-05-02T18:51:12;3.13;;;1.30;;
37284;SDS011;23172;53.550;9.964;2023-05-02T18:56:14;3.03;;;1.45;;
37284;SDS011;23172;53.550;9.964;2023-05-02T19:01:18;2.42;;;1.40;;
37284;SDS011;23172;53.550;9.964;2023-05-02T19:06:21;2.22;;;1.52;;
37284;SDS011;23172;53.550;9.964;2023-05-02T19:11:23;4.07;;;1.25;;
37284;SDS011;23172;53.550;9.964;2023-05-02T19:16:26;5.28;;;1.80;;
37284;SDS011;23172;53.550;9.964;2023-05-02T19:21:31;3.15;;;1.52;;
37284;SDS011;23172;53.550;9.964;2023-05-02T19:26:34;2.78;;;1.42;;
37284;SDS011;23172;53.550;9.964;2023-05-02T19:31:37;4.28;;;1.70;;
37284;SDS011;23172;53.550;9.964;2023-05-02T19:36:41;3.13;;;1.70;;
37284;SDS011;23172;53.550;9.964;2023-05-02T19:41:43;2.60;;;1.60;;
37284;SDS011;23172;53.550;9.964;2023-05-02T19:46:48;3.80;;;2.05;;
37284;SDS011;23172;53.550;9.964;2023-05-02T19:51:50;2.58;;;1.90;;
37284;SDS011;23172;53.550;9.964;2023-05-02T19:56:52;3.97;;;1.40;;
37284;SDS011;23172;53.550;9.964;2023-05-02T20:01:55;2.50;;;1.35;;
37284;SDS011;23172;53.550;9.964;2023-05-02T20:06:57;3.10;;;1.65;;
37284;SDS011;23172;53.550;9.964;2023-05-02T20:11:58;2.33;;;1.58;;
37284;SDS011;23172;53.550;9.964;2023-05-02T20:17:02;3.40;;;2.17;;
37284;SDS011;23172;53.550;9.964;2023-05-02T20:22:04;4.63;;;1.88;;
37284;SDS011;23172;53.550;9.964;2023-05-02T20:27:06;4.32;;;1.73;;
37284;SDS011;23172;53.550;9.964;2023-05-02T20:32:10;4.75;;;2.10;;
37284;SDS011;23172;53.550;9.964;2023-05-02T20:37:12;3.80;;;1.95;;
37284;SDS011;23172;53.550;9.964;2023-05-02T20:42:13;3.83;;;1.40;;
37284;SDS011;23172;53.550;9.964;2023-05-02T20:47:23;2.75;;;1.60;;
37284;SDS011;23172;53.550;9.964;2023-05-02T20:52:26;4.20;;;1.92;;
37284;SDS011;23172;53.550;9.964;2023-05-02T20:57:28;8.63;;;2.20;;
37284;SDS011;23172;53.550;9.964;2023-05-02T21:02:31;2.53;;;1.63;;
37284;SDS011;23172;53.550;9.964;2023-05-02T21:07:33;5.82;;;2.20;;
37284;SDS011;23172;53.550;9.964;2023-05-02T21:12:35;3.97;;;1.85;;
37284;SDS011;23172;53.550;9.964;2023-05-02T21:17:38;2.72;;;1.80;;
37284;SDS011;23172;53.550;9.964;2023-05-02T21:22:40;4.28;;;1.77;;
37284;SDS011;23172;53.550;9.964;2023-05-02T21:27:43;2.22;;;1.52;;
37284;SDS011;23172;53.550;9.964;2023-05-02T21:32:48;4.88;;;2.30;;
37284;SDS011;23172;53.550;9.964;2023-05-02T21:37:50;2.90;;;1.20;;
37284;SDS011;23172;53.550;9.964;2023-05-02T21:42:52;1.92;;;1.42;;
37284;SDS011;23172;53.550;9.964;2023-05-02T21:47:56;4.15;;;2.90;;
37284;SDS011;23172;53.550;9.964;2023-05-02T21:52:58;3.00;;;1.67;;
37284;SDS011;23172;53.550;9.964;2023-05-02T21:58:00;3.10;;;1.90;;
37284;SDS011;23172;53.550;9.964;2023-05-02T22:03:04;2.65;;;1.80;;
37284;SDS011;23172;53.550;9.964;2023-05-02T22:08:08;3.63;;;1.80;;
37284;SDS011;23172;53.550;9.964;2023-05-02T22:13:12;5.03;;;2.30;;
37284;SDS011;23172;53.550;9.964;2023-05-02T22:18:16;4.85;;;2.25;;
37284;SDS011;23172;53.550;9.964;2023-05-02T22:23:18;2.28;;;1.83;;
37284;SDS011;23172;53.550;9.964;2023-05-02T22:28:20;4.15;;;2.33;;
37284;SDS011;23172;53.550;9.964;2023-05-02T22:33:24;2.38;;;1.95;;
37284;SDS011;23172;53.550;9.964;2023-05-02T22:38:26;5.57;;;2.38;;
37284;SDS011;23172;53.550;9.964;2023-05-02T22:43:28;4.80;;;2.38;;
37284;SDS011;23172;53.550;9.964;2023-05-02T22:48:31;5.00;;;2.20;;
37284;SDS011;23172;53.550;9.964;2023-05-02T22:53:33;3.75;;;1.98;;
37284;SDS011;23172;53.550;9.964;2023-05-02T22:58:35;3.50;;;2.17;;
37284;SDS011;23172;53.550;9.964;2023-05-02T23:03:39;3.08;;;1.92;;
37284;SDS011;23172;53.550;9.964;2023-05-02T23:08:43;2.42;;;1.60;;
37284;SDS011;23172;53.550;9.964;2023-05-02T23:13:45;1.55;;;1.38;;
37284;SDS011;23172;53.550;9.964;2023-05-02T23:18:48;2.15;;;1.60;;
37284;SDS011;23172;53.550;9.964;2023-05-02T23:23:50;3.90;;;1.88;;
37284;SDS011;23172;53.550;9.964;2023-05-02T23:28:51;3.03;;;1.90;;
37284;SDS011;23172;53.550;9.964;2023-05-02T23:51:45;3.38;;;2.25;;
37284;SDS011;23172;53.550;9.964;2023-05-02T23:56:47;4.30;;;2.22;;
